Rechercher aéroport 
image banner adimage banner adimage banner ad
image banner ad

63CA - Desert Air Sky Ranch

Situé à North Shore, United States

ICAO - 63CA, IATA -

Données fournies par Airmate  

Information générale

Coordonnées: N33°28'52" W115°52'27"
Élévation : feet MSL.
Variation magnétique : 13° East
Voir autres Aéroports à California

Données opérationnelles

Special qualification required
Heure actuelle UTC:
Heure actuelle locale:
Météo à : KTRM - Jacqueline Cochran Rgnl ( 31 km )
METAR: KTRM 251352Z AUTO 33003KT 10SM CLR 28/17 A2987 RMK AO2 SLP116 T02830167
TAF: KTRM 251141Z 2512/2612 VRB05KT P6SM BKN120 FM251700 12011G18KT P6SM BKN120 FM252100 15015G23KT P6SM VCTS BKN070CB BKN100 FM260200 14008KT P6SM VCTS BKN060CB BKN100
Voir NOTAMs / SUP AIP / TFR affectant cet aéroport [VIEW]
Fréquences de communication: [VIEW]

Pistes:

Identifiant RWYQFULongueur (ft)Largeur (ft)SurfaceLDA (ft)
103000100EARTH
283000100EARTH

Coordonnées de l'aéroport

Adresse: North Shore United States

Vue satellite de 63CA